Time,TemperatureF,DewpointF,PressureIn,WindDirection,WindDirectionDegrees,WindSpeedMPH,WindSpeedGustMPH,Humidity,HourlyPrecipIn,Conditions,Clouds,dailyrainin,SoftwareType,DateUTC
2013-05-18 00:00:00,50.5,16.9,29.64,NNE,30,4.0,10.0,26,0.00,,,0.00,meteohub,2013-05-18 06:00:00,
2013-05-18 00:05:00,50.7,18.0,29.64,NNE,19,4.0,10.0,27,0.00,,,0.00,meteohub,2013-05-18 06:05:00,
2013-05-18 00:10:00,50.4,17.6,29.64,NE,34,4.0,9.0,27,0.00,,,0.00,meteohub,2013-05-18 06:10:00,
2013-05-18 00:15:00,49.6,18.7,29.64,North,359,1.0,7.0,29,0.00,,,0.00,meteohub,2013-05-18 06:15:00,
2013-05-18 00:20:00,48.9,19.6,29.64,NW,321,3.0,7.0,31,0.00,,,0.00,meteohub,2013-05-18 06:20:00,
2013-05-18 00:26:00,48.7,19.4,29.64,NNW,336,4.0,6.0,31,0.00,,,0.00,meteohub,2013-05-18 06:26:00,
2013-05-18 00:31:00,48.6,19.9,29.64,NNE,16,3.0,7.0,32,0.00,,,0.00,meteohub,2013-05-18 06:31:00,
2013-05-18 00:36:00,48.6,19.9,29.64,NW,326,2.0,7.0,32,0.00,,,0.00,meteohub,2013-05-18 06:36:00,
2013-05-18 00:41:00,48.4,19.9,29.64,NNW,339,6.0,7.0,32,0.00,,,0.00,meteohub,2013-05-18 06:41:00,
2013-05-18 00:46:00,48.4,19.9,29.64,NNW,336,6.0,10.0,32,0.00,,,0.00,meteohub,2013-05-18 06:46:00,
2013-05-18 00:51:00,48.4,19.9,29.64,NW,324,5.0,10.0,32,0.00,,,0.00,meteohub,2013-05-18 06:51:00,
2013-05-18 00:56:00,47.8,20.1,29.64,NNW,337,6.0,10.0,33,0.00,,,0.00,meteohub,2013-05-18 06:56:00,
2013-05-18 01:01:00,47.7,19.9,29.64,NNW,337,6.0,10.0,33,0.00,,,0.00,meteohub,2013-05-18 07:01:00,
2013-05-18 01:06:00,47.3,20.3,29.64,NNW,340,7.0,11.0,34,0.00,,,0.00,meteohub,2013-05-18 07:06:00,
2013-05-18 01:11:00,46.8,20.5,29.64,WNW,285,4.0,11.0,35,0.00,,,0.00,meteohub,2013-05-18 07:11:00,
2013-05-18 01:16:00,47.1,20.1,29.64,WNW,295,3.0,11.0,34,0.00,,,0.00,meteohub,2013-05-18 07:16:00,
2013-05-18 01:21:00,47.5,19.0,29.64,NNW,331,1.0,9.0,32,0.00,,,0.00,meteohub,2013-05-18 07:21:00,
2013-05-18 01:26:00,47.3,18.9,29.65,East,83,2.0,6.0,32,0.00,,,0.00,meteohub,2013-05-18 07:26:00,
2013-05-18 01:31:00,47.7,18.5,29.64,NE,43,2.0,6.0,31,0.00,,,0.00,meteohub,2013-05-18 07:31:00,
2013-05-18 01:36:00,47.5,19.0,29.65,SSE,162,1.0,3.0,32,0.00,,,0.00,meteohub,2013-05-18 07:36:00,
2013-05-18 01:41:00,46.8,18.5,29.65,SE,145,0.0,4.0,32,0.00,,,0.00,meteohub,2013-05-18 07:41:00,
2013-05-18 01:46:00,47.7,18.5,29.65,NNE,18,2.0,4.0,31,0.00,,,0.00,meteohub,2013-05-18 07:46:00,
2013-05-18 01:52:00,47.8,18.7,29.65,WNW,291,4.0,5.0,31,0.00,,,0.00,meteohub,2013-05-18 07:52:00,
2013-05-18 01:57:00,48.4,17.6,29.65,NW,321,2.0,7.0,29,0.00,,,0.00,meteohub,2013-05-18 07:57:00,
2013-05-18 02:02:00,50.0,16.5,29.65,SE,124,4.0,7.0,26,0.00,,,0.00,meteohub,2013-05-18 08:02:00,
2013-05-18 02:07:00,51.1,16.5,29.65,East,98,4.0,7.0,25,0.00,,,0.00,meteohub,2013-05-18 08:07:00,
2013-05-18 02:12:00,51.1,16.5,29.65,ENE,69,4.0,8.0,25,0.00,,,0.00,meteohub,2013-05-18 08:12:00,
2013-05-18 02:17:00,50.2,16.5,29.65,WNW,294,3.0,8.0,26,0.00,,,0.00,meteohub,2013-05-18 08:17:00,
2013-05-18 02:22:00,49.6,16.2,29.65,WSW,248,0.0,6.0,26,0.00,,,0.00,meteohub,2013-05-18 08:22:00,
2013-05-18 02:27:00,49.6,16.2,29.65,NNW,346,0.0,5.0,26,0.00,,,0.00,meteohub,2013-05-18 08:27:00,
2013-05-18 02:32:00,49.3,15.8,29.65,WSW,251,1.0,6.0,26,0.00,,,0.00,meteohub,2013-05-18 08:32:00,
2013-05-18 02:37:00,49.6,16.2,29.65,NNE,30,0.0,6.0,26,0.00,,,0.00,meteohub,2013-05-18 08:37:00,
2013-05-18 02:42:00,49.6,15.3,29.65,NE,56,1.0,6.0,25,0.00,,,0.00,meteohub,2013-05-18 08:42:00,
2013-05-18 02:47:00,49.5,15.1,29.65,East,83,1.0,4.0,25,0.00,,,0.00,meteohub,2013-05-18 08:47:00,
2013-05-18 02:52:00,49.3,15.8,29.65,East,93,0.0,3.0,26,0.00,,,0.00,meteohub,2013-05-18 08:52:00,
2013-05-18 02:57:00,48.9,15.4,29.66,NW,323,1.0,3.0,26,0.00,,,0.00,meteohub,2013-05-18 08:57:00,
2013-05-18 03:02:00,48.9,15.4,29.66,NW,321,3.0,3.0,26,0.00,,,0.00,meteohub,2013-05-18 09:02:00,
2013-05-18 03:07:00,48.4,16.7,29.66,WNW,285,3.0,6.0,28,0.00,,,0.00,meteohub,2013-05-18 09:07:00,
2013-05-18 03:12:00,48.4,16.0,29.66,WNW,283,0.0,7.0,27,0.00,,,0.00,meteohub,2013-05-18 09:12:00,
2013-05-18 03:17:00,48.9,15.4,29.66,East,89,1.0,7.0,26,0.00,,,0.00,meteohub,2013-05-18 09:17:00,
2013-05-18 03:22:00,48.9,16.3,29.66,NNW,328,3.0,5.0,27,0.00,,,0.00,meteohub,2013-05-18 09:22:00,
2013-05-18 03:27:00,47.7,16.9,29.66,NW,305,2.0,3.0,29,0.00,,,0.00,meteohub,2013-05-18 09:27:00,
2013-05-18 03:32:00,47.7,16.2,29.65,NNE,30,3.0,5.0,28,0.00,,,0.00,meteohub,2013-05-18 09:32:00,
2013-05-18 03:37:00,48.0,17.2,29.65,NNW,347,2.0,5.0,29,0.00,,,0.00,meteohub,2013-05-18 09:37:00,
2013-05-18 03:42:00,47.7,16.9,29.65,North,349,2.0,5.0,29,0.00,,,0.00,meteohub,2013-05-18 09:42:00,
2013-05-18 03:47:00,46.0,19.2,29.65,NNE,25,4.0,6.0,34,0.00,,,0.00,meteohub,2013-05-18 09:47:00,
2013-05-18 03:52:00,44.4,19.8,29.66,NNW,331,3.0,6.0,37,0.00,,,0.00,meteohub,2013-05-18 09:52:00,
2013-05-18 03:57:00,44.1,19.4,29.66,NNW,336,2.0,6.0,37,0.00,,,0.00,meteohub,2013-05-18 09:57:00,
2013-05-18 04:02:00,44.1,18.9,29.66,NNW,336,2.0,6.0,36,0.00,,,0.00,meteohub,2013-05-18 10:02:00,
2013-05-18 04:07:00,44.4,19.8,29.66,West,259,3.0,4.0,37,0.00,,,0.00,meteohub,2013-05-18 10:07:00,
2013-05-18 04:12:00,44.2,19.6,29.66,West,270,3.0,5.0,37,0.00,,,0.00,meteohub,2013-05-18 10:12:00,
2013-05-18 04:17:00,45.1,19.0,29.66,NNW,330,2.0,5.0,35,0.00,,,0.00,meteohub,2013-05-18 10:17:00,
2013-05-18 04:22:00,45.3,19.2,29.67,WNW,290,4.0,5.0,35,0.00,,,0.00,meteohub,2013-05-18 10:22:00,
2013-05-18 04:27:00,45.3,19.2,29.67,West,263,5.0,5.0,35,0.00,,,0.00,meteohub,2013-05-18 10:27:00,
2013-05-18 04:32:00,45.7,19.6,29.67,West,280,3.0,6.0,35,0.00,,,0.00,meteohub,2013-05-18 10:32:00,
2013-05-18 04:37:00,46.0,18.5,29.67,WNW,287,3.0,6.0,33,0.00,,,0.00,meteohub,2013-05-18 10:37:00,
2013-05-18 04:42:00,46.9,18.7,29.67,WNW,300,3.0,5.0,32,0.00,,,0.00,meteohub,2013-05-18 10:42:00,
2013-05-18 04:47:00,47.5,18.3,29.68,NW,318,1.0,4.0,31,0.00,,,0.00,meteohub,2013-05-18 10:47:00,
2013-05-18 04:52:00,47.7,17.8,29.68,West,264,0.0,3.0,30,0.00,,,0.00,meteohub,2013-05-18 10:52:00,
2013-05-18 04:57:00,46.9,19.4,29.68,NNW,345,1.0,3.0,33,0.00,,,0.00,meteohub,2013-05-18 10:57:00,
2013-05-18 05:02:00,46.0,19.9,29.68,NNW,330,2.0,4.0,35,0.00,,,0.00,meteohub,2013-05-18 11:02:00,
2013-05-18 05:07:00,45.1,21.0,29.68,NW,319,2.0,5.0,38,0.00,,,0.00,meteohub,2013-05-18 11:07:00,
2013-05-18 05:12:00,44.2,21.4,29.68,NW,323,0.0,5.0,40,0.00,,,0.00,meteohub,2013-05-18 11:12:00,
2013-05-18 05:17:00,44.4,21.0,29.68,NNW,332,2.0,6.0,39,0.00,,,0.00,meteohub,2013-05-18 11:17:00,
2013-05-18 05:22:00,44.4,21.6,29.68,NNE,26,3.0,6.0,40,0.00,,,0.00,meteohub,2013-05-18 11:22:00,
2013-05-18 05:27:00,44.2,22.1,29.68,NNW,336,4.0,6.0,41,0.00,,,0.00,meteohub,2013-05-18 11:27:00,
2013-05-18 05:32:00,44.1,22.5,29.68,NNW,336,3.0,5.0,42,0.00,,,0.00,meteohub,2013-05-18 11:32:00,
2013-05-18 05:37:00,43.9,20.5,29.68,North,11,2.0,6.0,39,0.00,,,0.00,meteohub,2013-05-18 11:37:00,
2013-05-18 05:42:00,44.2,22.6,29.68,NW,319,2.0,6.0,42,0.00,,,0.00,meteohub,2013-05-18 11:42:00,
2013-05-18 05:47:00,44.1,22.5,29.68,NW,322,2.0,5.0,42,0.00,,,0.00,meteohub,2013-05-18 11:47:00,
2013-05-18 05:52:00,44.1,22.5,29.68,NW,315,1.0,5.0,42,0.00,,,0.00,meteohub,2013-05-18 11:52:00,
2013-05-18 05:57:00,44.8,21.9,29.69,NW,318,2.0,4.0,40,0.00,,,0.00,meteohub,2013-05-18 11:57:00,
2013-05-18 06:02:00,45.1,21.7,29.69,NNW,333,4.0,5.0,39,0.00,,,0.00,meteohub,2013-05-18 12:02:00,
2013-05-18 06:07:00,45.1,21.7,29.69,NNW,328,3.0,5.0,39,0.00,,,0.00,meteohub,2013-05-18 12:07:00,
2013-05-18 06:12:00,45.7,21.6,29.69,NW,316,1.0,5.0,38,0.00,,,0.00,meteohub,2013-05-18 12:12:00,
2013-05-18 06:17:00,45.3,22.5,29.69,NNW,337,5.0,5.0,40,0.00,,,0.00,meteohub,2013-05-18 12:17:00,
2013-05-18 06:22:00,45.1,21.7,29.69,NNW,336,6.0,6.0,39,0.00,,,0.00,meteohub,2013-05-18 12:22:00,
2013-05-18 06:27:00,45.1,22.3,29.69,NNW,333,4.0,7.0,40,0.00,,,0.00,meteohub,2013-05-18 12:27:00,
2013-05-18 06:32:00,45.1,22.3,29.68,NNW,340,7.0,7.0,40,0.00,,,0.00,meteohub,2013-05-18 12:32:00,
2013-05-18 06:37:00,45.0,22.6,29.68,West,270,2.0,9.0,41,0.00,,,0.00,meteohub,2013-05-18 12:37:00,
2013-05-18 06:42:00,44.4,22.8,29.69,NNW,331,6.0,9.0,42,0.00,,,0.00,meteohub,2013-05-18 12:42:00,
2013-05-18 06:47:00,43.7,24.3,29.69,NW,315,6.0,9.0,46,0.00,,,0.00,meteohub,2013-05-18 12:47:00,
2013-05-18 06:52:00,43.0,24.6,29.69,NNW,333,8.0,8.0,48,0.00,,,0.00,meteohub,2013-05-18 12:52:00,
2013-05-18 06:57:00,42.4,24.6,29.69,NW,323,4.0,9.0,49,0.00,,,0.00,meteohub,2013-05-18 12:57:00,
2013-05-18 07:02:00,42.3,23.9,29.69,NNW,333,5.0,9.0,48,0.00,,,0.00,meteohub,2013-05-18 13:02:00,
2013-05-18 07:07:00,42.3,24.4,29.69,NW,316,4.0,9.0,49,0.00,,,0.00,meteohub,2013-05-18 13:07:00,
2013-05-18 07:12:00,42.6,24.8,29.69,NW,324,1.0,8.0,49,0.00,,,0.00,meteohub,2013-05-18 13:12:00,
2013-05-18 07:17:00,43.2,24.8,29.69,WNW,287,2.0,6.0,48,0.00,,,0.00,meteohub,2013-05-18 13:17:00,
2013-05-18 07:22:00,44.1,25.7,29.69,NW,316,2.0,5.0,48,0.00,,,0.00,meteohub,2013-05-18 13:22:00,
2013-05-18 07:27:00,44.8,25.7,29.68,NW,321,2.0,5.0,47,0.00,,,0.00,meteohub,2013-05-18 13:27:00,
2013-05-18 07:32:00,45.3,25.2,29.68,NNW,331,2.0,5.0,45,0.00,,,0.00,meteohub,2013-05-18 13:32:00,
2013-05-18 07:37:00,46.0,25.9,29.68,NNW,328,5.0,5.0,45,0.00,,,0.00,meteohub,2013-05-18 13:37:00,
2013-05-18 07:42:00,47.1,24.6,29.68,NNW,340,1.0,5.0,41,0.00,,,0.00,meteohub,2013-05-18 13:42:00,
2013-05-18 07:47:00,48.0,25.5,29.68,NNW,335,3.0,5.0,41,0.00,,,0.00,meteohub,2013-05-18 13:47:00,
2013-05-18 07:52:00,49.3,25.3,29.68,NE,34,0.0,5.0,39,0.00,,,0.00,meteohub,2013-05-18 13:52:00,
2013-05-18 07:57:00,50.4,24.4,29.68,NNE,20,1.0,4.0,36,0.00,,,0.00,meteohub,2013-05-18 13:57:00,
2013-05-18 08:02:00,51.3,22.5,29.68,SE,143,1.0,4.0,32,0.00,,,0.00,meteohub,2013-05-18 14:02:00,
2013-05-18 08:07:00,52.0,23.7,29.68,ESE,117,1.0,5.0,33,0.00,,,0.00,meteohub,2013-05-18 14:07:00,
2013-05-18 08:12:00,51.6,22.6,29.68,ESE,118,6.0,6.0,32,0.00,,,0.00,meteohub,2013-05-18 14:12:00,
2013-05-18 08:17:00,51.1,23.7,29.68,SE,145,5.0,6.0,34,0.00,,,0.00,meteohub,2013-05-18 14:17:00,
2013-05-18 08:22:00,51.3,23.9,29.68,ESE,105,1.0,6.0,34,0.00,,,0.00,meteohub,2013-05-18 14:22:00,
2013-05-18 08:27:00,52.3,24.1,29.68,SE,136,3.0,6.0,33,0.00,,,0.00,meteohub,2013-05-18 14:27:00,
2013-05-18 08:32:00,52.3,22.6,29.68,SE,141,7.0,8.0,31,0.00,,,0.00,meteohub,2013-05-18 14:32:00,
2013-05-18 08:37:00,52.3,24.1,29.67,SSE,160,9.0,10.0,33,0.00,,,0.00,meteohub,2013-05-18 14:37:00,
2013-05-18 08:42:00,52.3,23.4,29.67,ESE,121,4.0,10.0,32,0.00,,,0.00,meteohub,2013-05-18 14:42:00,
2013-05-18 08:47:00,52.5,24.3,29.66,SE,124,3.0,10.0,33,0.00,,,0.00,meteohub,2013-05-18 14:47:00,
2013-05-18 08:52:00,53.2,25.5,29.66,SSE,148,2.0,10.0,34,0.00,,,0.00,meteohub,2013-05-18 14:52:00,
2013-05-18 08:57:00,54.0,24.1,29.66,East,92,3.0,9.0,31,0.00,,,0.00,meteohub,2013-05-18 14:57:00,
2013-05-18 09:02:00,54.5,22.8,29.66,SSE,153,6.0,8.0,29,0.00,,,0.00,meteohub,2013-05-18 15:02:00,
2013-05-18 09:07:00,55.0,22.5,29.66,South,184,3.0,8.0,28,0.00,,,0.00,meteohub,2013-05-18 15:07:00,
2013-05-18 09:12:00,56.1,24.3,29.66,SSE,155,3.0,8.0,29,0.00,,,0.00,meteohub,2013-05-18 15:12:00,
2013-05-18 09:17:00,56.1,22.6,29.66,SE,132,8.0,9.0,27,0.00,,,0.00,meteohub,2013-05-18 15:17:00,
2013-05-18 09:22:00,56.1,23.4,29.66,SW,233,0.0,10.0,28,0.00,,,0.00,meteohub,2013-05-18 15:22:00,
2013-05-18 09:27:00,56.7,22.1,29.66,WSW,240,0.0,10.0,26,0.00,,,0.00,meteohub,2013-05-18 15:27:00,
2013-05-18 09:32:00,57.2,23.5,29.66,WSW,238,3.0,10.0,27,0.00,,,0.00,meteohub,2013-05-18 15:32:00,
2013-05-18 09:37:00,57.6,23.0,29.65,ESE,108,11.0,11.0,26,0.00,,,0.00,meteohub,2013-05-18 15:37:00,
2013-05-18 09:42:00,58.1,22.5,29.65,WNW,290,3.0,15.0,25,0.00,,,0.00,meteohub,2013-05-18 15:42:00,
2013-05-18 09:47:00,58.5,21.7,29.65,WNW,303,6.0,28.0,24,0.00,,,0.00,meteohub,2013-05-18 15:47:00,
2013-05-18 09:52:00,58.3,21.6,29.65,ESE,116,4.0,28.0,24,0.00,,,0.00,meteohub,2013-05-18 15:52:00,
2013-05-18 09:57:00,57.7,21.2,29.65,NW,314,8.0,28.0,24,0.00,,,0.00,meteohub,2013-05-18 15:57:00,
2013-05-18 10:02:00,58.5,22.8,29.65,NE,54,1.0,13.0,25,0.00,,,0.00,meteohub,2013-05-18 16:02:00,
2013-05-18 10:07:00,59.7,21.9,29.64,NNW,334,9.0,13.0,23,0.00,,,0.00,meteohub,2013-05-18 16:07:00,
2013-05-18 10:12:00,59.7,21.9,29.65,NW,314,0.0,12.0,23,0.00,,,0.00,meteohub,2013-05-18 16:12:00,
2013-05-18 10:17:00,60.3,22.3,29.64,NE,56,1.0,12.0,23,0.00,,,0.00,meteohub,2013-05-18 16:17:00,
2013-05-18 10:22:00,61.2,21.9,29.64,WNW,288,7.0,12.0,22,0.00,,,0.00,meteohub,2013-05-18 16:22:00,
2013-05-18 10:27:00,60.1,21.0,29.64,SW,228,8.0,14.0,22,0.00,,,0.00,meteohub,2013-05-18 16:27:00,
2013-05-18 10:32:00,59.4,19.4,29.65,WNW,288,11.0,14.0,21,0.00,,,0.00,meteohub,2013-05-18 16:32:00,
2013-05-18 10:37:00,57.9,19.2,29.65,SSW,203,5.0,18.0,22,0.00,,,0.00,meteohub,2013-05-18 16:37:00,
2013-05-18 10:42:00,58.1,22.5,29.65,West,269,9.0,18.0,25,0.00,,,0.00,meteohub,2013-05-18 16:42:00,
2013-05-18 10:47:00,58.3,19.6,29.65,SE,143,8.0,18.0,22,0.00,,,0.00,meteohub,2013-05-18 16:47:00,
2013-05-18 10:52:00,57.7,21.2,29.65,West,273,5.0,15.0,24,0.00,,,0.00,meteohub,2013-05-18 16:52:00,
2013-05-18 10:57:00,57.6,21.0,29.65,WSW,257,15.0,21.0,24,0.00,,,0.00,meteohub,2013-05-18 16:57:00,
2013-05-18 11:02:00,56.8,19.4,29.65,SW,216,5.0,21.0,23,0.00,,,0.00,meteohub,2013-05-18 17:02:00,
2013-05-18 11:07:00,56.7,20.3,29.65,NW,314,4.0,15.0,24,0.00,,,0.00,meteohub,2013-05-18 17:07:00,
2013-05-18 11:12:00,56.8,21.4,29.65,NNW,330,5.0,15.0,25,0.00,,,0.00,meteohub,2013-05-18 17:12:00,
2013-05-18 11:17:00,57.2,21.7,29.64,West,263,8.0,13.0,25,0.00,,,0.00,meteohub,2013-05-18 17:17:00,
2013-05-18 11:22:00,57.2,22.6,29.64,WSW,249,3.0,13.0,26,0.00,,,0.00,meteohub,2013-05-18 17:22:00,
2013-05-18 11:27:00,57.0,21.6,29.64,SW,216,4.0,13.0,25,0.00,,,0.00,meteohub,2013-05-18 17:27:00,
2013-05-18 11:32:00,58.5,22.8,29.64,West,278,5.0,11.0,25,0.00,,,0.00,meteohub,2013-05-18 17:32:00,
2013-05-18 11:37:00,60.1,21.0,29.64,SSE,148,4.0,11.0,22,0.00,,,0.00,meteohub,2013-05-18 17:37:00,
2013-05-18 11:42:00,60.4,21.4,29.63,SSE,149,4.0,9.0,22,0.00,,,0.00,meteohub,2013-05-18 17:42:00,
2013-05-18 11:47:00,60.3,22.3,29.63,NW,305,0.0,12.0,23,0.00,,,0.00,meteohub,2013-05-18 17:47:00,
2013-05-18 11:52:00,60.4,21.4,29.63,NNW,343,5.0,12.0,22,0.00,,,0.00,meteohub,2013-05-18 17:52:00,
2013-05-18 11:57:00,60.1,21.0,29.62,WNW,298,2.0,12.0,22,0.00,,,0.00,meteohub,2013-05-18 17:57:00,
2013-05-18 12:02:00,59.5,21.7,29.62,West,280,1.0,11.0,23,0.00,,,0.00,meteohub,2013-05-18 18:02:00,
2013-05-18 12:07:00,59.7,21.9,29.62,West,273,1.0,11.0,23,0.00,,,0.00,meteohub,2013-05-18 18:07:00,
2013-05-18 12:12:00,60.3,20.1,29.62,SSE,155,0.0,11.0,21,0.00,,,0.00,meteohub,2013-05-18 18:12:00,
2013-05-18 12:17:00,60.1,19.9,29.62,West,276,3.0,10.0,21,0.00,,,0.00,meteohub,2013-05-18 18:17:00,
2013-05-18 12:23:00,59.2,19.2,29.62,SW,232,2.0,9.0,21,0.00,,,0.00,meteohub,2013-05-18 18:23:00,
2013-05-18 12:28:00,59.4,19.4,29.61,ESE,113,4.0,10.0,21,0.00,,,0.00,meteohub,2013-05-18 18:28:00,
2013-05-18 12:33:00,59.7,19.8,29.61,ENE,75,1.0,10.0,21,0.00,,,0.00,meteohub,2013-05-18 18:33:00,
2013-05-18 12:38:00,60.4,21.4,29.60,WSW,243,2.0,10.0,22,0.00,,,0.00,meteohub,2013-05-18 18:38:00,
2013-05-18 12:43:00,61.7,21.4,29.60,East,84,2.0,5.0,21,0.00,,,0.00,meteohub,2013-05-18 18:43:00,
2013-05-18 12:48:00,61.3,21.0,29.60,West,280,4.0,6.0,21,0.00,,,0.00,meteohub,2013-05-18 18:48:00,
2013-05-18 12:53:00,59.5,20.7,29.60,West,270,4.0,6.0,22,0.00,,,0.00,meteohub,2013-05-18 18:53:00,
2013-05-18 12:58:00,59.4,21.6,29.59,WSW,252,11.0,11.0,23,0.00,,,0.00,meteohub,2013-05-18 18:58:00,
2013-05-18 13:03:00,59.2,20.3,29.59,West,264,10.0,13.0,22,0.00,,,0.00,meteohub,2013-05-18 19:03:00,
2013-05-18 13:08:00,59.0,20.1,29.59,NNW,340,3.0,15.0,22,0.00,,,0.00,meteohub,2013-05-18 19:08:00,
2013-05-18 13:13:00,60.1,22.1,29.59,WNW,297,5.0,15.0,23,0.00,,,0.00,meteohub,2013-05-18 19:13:00,
2013-05-18 13:18:00,61.2,21.9,29.59,SW,231,2.0,15.0,22,0.00,,,0.00,meteohub,2013-05-18 19:18:00,
2013-05-18 13:23:00,62.2,20.7,29.58,SW,221,5.0,11.0,20,0.00,,,0.00,meteohub,2013-05-18 19:23:00,
2013-05-18 13:28:00,62.2,20.7,29.58,SW,235,1.0,11.0,20,0.00,,,0.00,meteohub,2013-05-18 19:28:00,
2013-05-18 13:33:00,62.2,21.7,29.58,SE,137,2.0,10.0,21,0.00,,,0.00,meteohub,2013-05-18 19:33:00,
2013-05-18 13:38:00,63.5,21.7,29.58,NW,304,2.0,7.0,20,0.00,,,0.00,meteohub,2013-05-18 19:38:00,
2013-05-18 13:44:00,63.0,20.1,29.57,WNW,302,4.0,10.0,19,0.00,,,0.00,meteohub,2013-05-18 19:44:00,
2013-05-18 13:49:00,61.3,22.1,29.57,WNW,287,5.0,10.0,22,0.00,,,0.00,meteohub,2013-05-18 19:49:00,
2013-05-18 13:54:00,60.3,21.2,29.57,NE,46,0.0,11.0,22,0.00,,,0.00,meteohub,2013-05-18 19:54:00,
2013-05-18 13:59:00,59.7,22.8,29.57,WNW,298,2.0,12.0,24,0.00,,,0.00,meteohub,2013-05-18 19:59:00,
2013-05-18 14:04:00,59.0,23.2,29.57,WNW,298,4.0,12.0,25,0.00,,,0.00,meteohub,2013-05-18 20:04:00,
2013-05-18 14:09:00,59.2,23.4,29.57,WNW,287,2.0,15.0,25,0.00,,,0.00,meteohub,2013-05-18 20:09:00,
2013-05-18 14:14:00,59.2,23.4,29.57,NNW,327,6.0,15.0,25,0.00,,,0.00,meteohub,2013-05-18 20:14:00,
2013-05-18 14:19:00,59.5,20.7,29.57,WSW,243,0.0,15.0,22,0.00,,,0.00,meteohub,2013-05-18 20:19:00,
2013-05-18 14:24:00,60.1,19.9,29.57,WSW,250,0.0,11.0,21,0.00,,,0.00,meteohub,2013-05-18 20:24:00,
2013-05-18 14:29:00,60.6,22.6,29.57,ENE,77,2.0,10.0,23,0.00,,,0.00,meteohub,2013-05-18 20:29:00,
2013-05-18 14:34:00,60.3,21.2,29.57,East,101,2.0,7.0,22,0.00,,,0.00,meteohub,2013-05-18 20:34:00,
2013-05-18 14:39:00,60.3,22.3,29.57,SE,135,5.0,7.0,23,0.00,,,0.00,meteohub,2013-05-18 20:39:00,
2013-05-18 14:44:00,60.3,22.3,29.56,ESE,116,6.0,10.0,23,0.00,,,0.00,meteohub,2013-05-18 20:44:00,
2013-05-18 14:49:00,59.7,21.9,29.57,East,94,2.0,10.0,23,0.00,,,0.00,meteohub,2013-05-18 20:49:00,
2013-05-18 14:54:00,59.4,21.6,29.56,SE,142,6.0,11.0,23,0.00,,,0.00,meteohub,2013-05-18 20:54:00,
2013-05-18 14:59:00,59.2,21.4,29.56,SE,144,2.0,13.0,23,0.00,,,0.00,meteohub,2013-05-18 20:59:00,
2013-05-18 15:05:00,59.5,21.7,29.57,SSE,157,11.0,13.0,23,0.00,,,0.00,meteohub,2013-05-18 21:05:00,
2013-05-18 15:10:00,59.5,24.6,29.57,SSE,149,16.0,27.0,26,0.00,,,0.00,meteohub,2013-05-18 21:10:00,
2013-05-18 15:15:00,58.5,25.5,29.57,SW,219,10.0,27.0,28,0.00,,,0.00,meteohub,2013-05-18 21:15:00,
2013-05-18 15:20:00,57.9,25.9,29.58,ESE,108,3.0,27.0,29,0.00,,,0.00,meteohub,2013-05-18 21:20:00,
2013-05-18 15:25:00,57.4,25.3,29.57,ESE,105,6.0,20.0,29,0.00,,,0.00,meteohub,2013-05-18 21:25:00,
2013-05-18 15:30:00,57.4,23.7,29.57,SE,124,9.0,20.0,27,0.00,,,0.00,meteohub,2013-05-18 21:30:00,
2013-05-18 15:35:00,57.7,23.9,29.58,ENE,78,2.0,19.0,27,0.00,,,0.00,meteohub,2013-05-18 21:35:00,
2013-05-18 15:40:00,57.6,23.0,29.57,SE,125,6.0,19.0,26,0.00,,,0.00,meteohub,2013-05-18 21:40:00,
2013-05-18 15:45:00,57.9,25.0,29.57,NNW,338,5.0,19.0,28,0.00,,,0.00,meteohub,2013-05-18 21:45:00,
2013-05-18 15:50:00,58.8,24.1,29.57,NW,318,6.0,11.0,26,0.00,,,0.00,meteohub,2013-05-18 21:50:00,
2013-05-18 15:55:00,60.1,24.1,29.58,East,79,3.0,9.0,25,0.00,,,0.00,meteohub,2013-05-18 21:55:00,
2013-05-18 16:00:00,59.5,22.6,29.58,WNW,295,2.0,10.0,24,0.00,,,0.00,meteohub,2013-05-18 22:00:00,
2013-05-18 16:05:00,59.4,22.6,29.58,WSW,245,5.0,10.0,24,0.00,,,0.00,meteohub,2013-05-18 22:05:00,
2013-05-18 16:10:00,59.9,23.9,29.57,SW,236,1.0,9.0,25,0.00,,,0.00,meteohub,2013-05-18 22:10:00,
2013-05-18 16:15:00,60.1,22.1,29.57,West,262,11.0,12.0,23,0.00,,,0.00,meteohub,2013-05-18 22:15:00,
2013-05-18 16:20:00,58.6,21.9,29.57,WSW,245,4.0,15.0,24,0.00,,,0.00,meteohub,2013-05-18 22:20:00,
2013-05-18 16:26:00,58.5,22.8,29.57,West,263,5.0,15.0,25,0.00,,,0.00,meteohub,2013-05-18 22:26:00,
2013-05-18 16:31:00,59.2,23.4,29.57,West,267,1.0,15.0,25,0.00,,,0.00,meteohub,2013-05-18 22:31:00,
2013-05-18 16:36:00,60.3,21.2,29.58,West,280,4.0,10.0,22,0.00,,,0.00,meteohub,2013-05-18 22:36:00,
2013-05-18 16:41:00,58.6,24.8,29.57,NW,326,7.0,13.0,27,0.00,,,0.00,meteohub,2013-05-18 22:41:00,
2013-05-18 16:46:00,57.4,24.6,29.57,NW,308,5.0,16.0,28,0.00,,,0.00,meteohub,2013-05-18 22:46:00,
2013-05-18 16:51:00,56.5,23.7,29.58,WNW,287,13.0,23.0,28,0.00,,,0.00,meteohub,2013-05-18 22:51:00,
2013-05-18 16:56:00,55.9,24.1,29.58,NNW,336,6.0,23.0,29,0.00,,,0.00,meteohub,2013-05-18 22:56:00,
2013-05-18 17:01:00,54.9,25.5,29.58,West,280,8.0,20.0,32,0.00,,,0.00,meteohub,2013-05-18 23:01:00,
2013-05-18 17:06:00,54.3,25.2,29.58,WSW,256,6.0,20.0,32,0.00,,,0.00,meteohub,2013-05-18 23:06:00,
2013-05-18 17:11:00,54.3,24.3,29.59,SSW,204,8.0,20.0,31,0.00,,,0.00,meteohub,2013-05-18 23:11:00,
2013-05-18 17:16:00,54.3,24.3,29.58,WSW,238,9.0,17.0,31,0.00,,,0.00,meteohub,2013-05-18 23:16:00,
2013-05-18 17:21:00,54.7,23.9,29.59,WSW,248,9.0,16.0,30,0.00,,,0.00,meteohub,2013-05-18 23:21:00,
2013-05-18 17:26:00,54.7,23.9,29.59,WNW,283,5.0,15.0,30,0.00,,,0.00,meteohub,2013-05-18 23:26:00,
2013-05-18 17:31:00,54.5,23.7,29.59,SSW,208,18.0,18.0,30,0.00,,,0.00,meteohub,2013-05-18 23:31:00,
2013-05-18 17:36:00,54.0,24.1,29.59,SW,224,13.0,22.0,31,0.00,,,0.00,meteohub,2013-05-18 23:36:00,
2013-05-18 17:41:00,53.6,23.7,29.59,WSW,246,10.0,22.0,31,0.00,,,0.00,meteohub,2013-05-18 23:41:00,
2013-05-18 17:47:00,53.8,23.9,29.59,SW,233,7.0,22.0,31,0.00,,,0.00,meteohub,2013-05-18 23:47:00,
2013-05-18 17:52:00,54.0,24.1,29.59,West,275,4.0,19.0,31,0.00,,,0.00,meteohub,2013-05-18 23:52:00,
2013-05-18 17:57:00,54.0,24.1,29.59,NNW,333,2.0,14.0,31,0.00,,,0.00,meteohub,2013-05-18 23:57:00,
2013-05-18 18:02:00,54.0,24.1,29.59,WSW,244,1.0,10.0,31,0.00,,,0.00,meteohub,2013-05-19 00:02:00,
2013-05-18 18:07:00,54.1,22.6,29.59,WSW,245,11.0,11.0,29,0.00,,,0.00,meteohub,2013-05-19 00:07:00,
2013-05-18 18:12:00,54.1,23.4,29.60,WSW,245,5.0,14.0,30,0.00,,,0.00,meteohub,2013-05-19 00:12:00,
2013-05-18 18:17:00,54.3,23.5,29.60,SW,228,3.0,14.0,30,0.00,,,0.00,meteohub,2013-05-19 00:17:00,
2013-05-18 18:22:00,54.3,23.5,29.60,WNW,290,1.0,14.0,30,0.00,,,0.00,meteohub,2013-05-19 00:22:00,
2013-05-18 18:27:00,54.7,23.9,29.60,SSE,160,1.0,11.0,30,0.00,,,0.00,meteohub,2013-05-19 00:27:00,
2013-05-18 18:32:00,54.1,25.7,29.60,SE,132,3.0,10.0,33,0.00,,,0.00,meteohub,2013-05-19 00:32:00,
2013-05-18 18:37:00,54.0,25.5,29.60,East,81,3.0,7.0,33,0.00,,,0.00,meteohub,2013-05-19 00:37:00,
2013-05-18 18:42:00,54.1,26.4,29.60,NE,39,2.0,10.0,34,0.00,,,0.00,meteohub,2013-05-19 00:42:00,
2013-05-18 18:47:00,54.3,27.9,29.61,East,98,3.0,10.0,36,0.00,,,0.00,meteohub,2013-05-19 00:47:00,
2013-05-18 18:52:00,53.4,30.4,29.61,North,3,15.0,15.0,41,0.00,,,0.00,meteohub,2013-05-19 00:52:00,
2013-05-18 18:57:00,52.7,30.7,29.60,NNW,333,9.0,19.0,43,0.00,,,0.00,meteohub,2013-05-19 00:57:00,
2013-05-18 19:02:00,52.5,30.7,29.60,NNE,33,10.0,19.0,43,0.00,,,0.00,meteohub,2013-05-19 01:02:00,
2013-05-18 19:07:00,52.0,30.2,29.61,NNW,330,7.0,19.0,43,0.00,,,0.00,meteohub,2013-05-19 01:07:00,
2013-05-18 19:12:00,50.9,30.4,29.60,North,355,13.0,22.0,45,0.00,,,0.00,meteohub,2013-05-19 01:12:00,
2013-05-18 19:17:00,49.6,30.2,29.61,NW,322,13.0,22.0,47,0.00,,,0.00,meteohub,2013-05-19 01:17:00,
2013-05-18 19:22:00,48.9,30.0,29.62,NNW,329,17.0,21.0,48,0.00,,,0.00,meteohub,2013-05-19 01:22:00,
2013-05-18 19:27:00,48.6,29.3,29.62,NW,319,10.0,22.0,47,0.00,,,0.00,meteohub,2013-05-19 01:27:00,
2013-05-18 19:32:00,48.0,30.2,29.62,NW,305,7.0,22.0,50,0.00,,,0.00,meteohub,2013-05-19 01:32:00,
2013-05-18 19:37:00,47.7,30.4,29.62,NNW,331,5.0,22.0,51,0.00,,,0.00,meteohub,2013-05-19 01:37:00,
2013-05-18 19:42:00,47.5,30.2,29.63,SW,229,6.0,21.0,51,0.00,,,0.00,meteohub,2013-05-19 01:42:00,
2013-05-18 19:47:00,48.0,28.2,29.63,NNW,335,10.0,20.0,46,0.00,,,0.00,meteohub,2013-05-19 01:47:00,
2013-05-18 19:52:00,48.0,30.2,29.63,NW,323,10.0,21.0,50,0.00,,,0.00,meteohub,2013-05-19 01:52:00,
2013-05-18 19:57:00,46.9,30.2,29.63,NNW,337,10.0,21.0,52,0.00,,,0.00,meteohub,2013-05-19 01:57:00,
2013-05-18 20:02:00,46.2,31.5,29.64,NNW,329,10.0,21.0,56,0.00,,,0.00,meteohub,2013-05-19 02:02:00,
2013-05-18 20:07:00,45.7,31.8,29.65,NNW,344,8.0,18.0,58,0.00,,,0.00,meteohub,2013-05-19 02:07:00,
2013-05-18 20:12:00,45.1,32.5,29.64,NNE,30,22.0,22.0,61,0.00,,,0.00,meteohub,2013-05-19 02:12:00,
2013-05-18 20:17:00,45.0,32.0,29.65,NNE,19,16.0,29.0,60,0.00,,,0.00,meteohub,2013-05-19 02:17:00,
2013-05-18 20:22:00,45.1,31.3,29.65,NNW,344,6.0,29.0,58,0.00,,,0.00,meteohub,2013-05-19 02:22:00,
2013-05-18 20:27:00,45.5,31.1,29.66,NE,38,8.0,29.0,57,0.00,,,0.00,meteohub,2013-05-19 02:27:00,
2013-05-18 20:32:00,45.9,30.2,29.65,North,8,18.0,27.0,54,0.00,,,0.00,meteohub,2013-05-19 02:32:00,
2013-05-18 20:37:00,46.0,28.9,29.65,NW,323,10.0,22.0,51,0.00,,,0.00,meteohub,2013-05-19 02:37:00,
2013-05-18 20:42:00,46.6,28.9,29.65,NNW,342,9.0,22.0,50,0.00,,,0.00,meteohub,2013-05-19 02:42:00,
2013-05-18 20:47:00,46.9,27.7,29.65,NW,304,6.0,22.0,47,0.00,,,0.00,meteohub,2013-05-19 02:47:00,
2013-05-18 20:52:00,46.9,27.3,29.65,NNW,330,12.0,15.0,46,0.00,,,0.00,meteohub,2013-05-19 02:52:00,
2013-05-18 20:57:00,47.1,27.3,29.65,NNW,337,11.0,19.0,46,0.00,,,0.00,meteohub,2013-05-19 02:57:00,
2013-05-18 21:02:00,47.1,26.2,29.64,NNW,334,16.0,19.0,44,0.00,,,0.00,meteohub,2013-05-19 03:02:00,
2013-05-18 21:07:00,47.3,26.4,29.64,NW,316,13.0,19.0,44,0.00,,,0.00,meteohub,2013-05-19 03:07:00,
2013-05-18 21:12:00,47.5,25.5,29.64,NNW,342,10.0,22.0,42,0.00,,,0.00,meteohub,2013-05-19 03:12:00,
2013-05-18 21:17:00,47.7,24.4,29.64,NW,326,13.0,22.0,40,0.00,,,0.00,meteohub,2013-05-19 03:17:00,
2013-05-18 21:22:00,47.5,25.5,29.64,NNW,335,7.0,24.0,42,0.00,,,0.00,meteohub,2013-05-19 03:22:00,
2013-05-18 21:27:00,47.3,24.3,29.65,NNW,331,6.0,24.0,40,0.00,,,0.00,meteohub,2013-05-19 03:27:00,
2013-05-18 21:32:00,47.1,24.1,29.65,SW,225,3.0,24.0,40,0.00,,,0.00,meteohub,2013-05-19 03:32:00,
2013-05-18 21:37:00,46.8,25.5,29.66,SW,232,2.0,16.0,43,0.00,,,0.00,meteohub,2013-05-19 03:37:00,
2013-05-18 21:42:00,45.9,29.3,29.65,SW,232,2.0,16.0,52,0.00,,,0.00,meteohub,2013-05-19 03:42:00,
2013-05-18 21:47:00,45.0,29.3,29.66,WNW,296,2.0,11.0,54,0.00,,,0.00,meteohub,2013-05-19 03:47:00,
2013-05-18 21:52:00,44.2,29.1,29.66,NNW,329,2.0,9.0,55,0.00,,,0.00,meteohub,2013-05-19 03:52:00,
2013-05-18 21:57:00,44.2,29.5,29.66,South,179,3.0,7.0,56,0.00,,,0.00,meteohub,2013-05-19 03:57:00,
2013-05-18 22:01:00,44.2,30.0,29.66,SW,218,4.0,8.0,57,0.00,,,0.00,meteohub,2013-05-19 04:01:00,
2013-05-18 22:02:00,44.1,29.8,29.66,SW,218,1.0,8.0,57,0.00,,,0.00,meteohub,2013-05-19 04:02:00,
2013-05-18 22:03:00,44.1,29.8,29.66,SSW,211,0.0,8.0,57,0.00,,,0.00,meteohub,2013-05-19 04:03:00,
2013-05-18 22:05:00,43.9,29.7,29.66,WSW,251,2.0,8.0,57,0.00,,,0.00,meteohub,2013-05-19 04:05:00,
2013-05-18 22:10:00,43.9,28.8,29.67,NNW,344,4.0,8.0,55,0.00,,,0.00,meteohub,2013-05-19 04:10:00,
2013-05-18 22:12:00,43.9,25.5,29.67,WNW,297,4.0,11.0,48,0.00,,,0.00,meteohub,2013-05-19 04:12:00,
2013-05-18 22:17:00,44.8,25.3,29.67,WNW,297,5.0,11.0,46,0.00,,,0.00,meteohub,2013-05-19 04:17:00,
2013-05-18 22:22:00,45.3,24.1,29.67,NW,316,7.0,13.0,43,0.00,,,0.00,meteohub,2013-05-19 04:22:00,
2013-05-18 22:27:00,46.0,23.7,29.67,NNW,345,13.0,22.0,41,0.00,,,0.00,meteohub,2013-05-19 04:27:00,
2013-05-18 22:32:00,46.0,24.3,29.67,NW,319,10.0,22.0,42,0.00,,,0.00,meteohub,2013-05-19 04:32:00,
2013-05-18 22:37:00,46.0,23.0,29.67,North,352,2.0,22.0,40,0.00,,,0.00,meteohub,2013-05-19 04:37:00,
2013-05-18 22:42:00,45.9,23.5,29.67,North,352,4.0,20.0,41,0.00,,,0.00,meteohub,2013-05-19 04:42:00,
2013-05-18 22:47:00,45.3,23.5,29.67,NW,320,7.0,14.0,42,0.00,,,0.00,meteohub,2013-05-19 04:47:00,
2013-05-18 22:52:00,45.0,25.0,29.67,NW,325,7.0,11.0,45,0.00,,,0.00,meteohub,2013-05-19 04:52:00,
2013-05-18 22:57:00,44.8,25.3,29.67,North,11,8.0,14.0,46,0.00,,,0.00,meteohub,2013-05-19 04:57:00,
2013-05-18 23:02:00,44.4,24.4,29.67,NNW,336,2.0,14.0,45,0.00,,,0.00,meteohub,2013-05-19 05:02:00,
2013-05-18 23:07:00,44.6,24.6,29.68,NW,326,3.0,14.0,45,0.00,,,0.00,meteohub,2013-05-19 05:07:00,
2013-05-18 23:12:00,44.2,25.3,29.67,North,354,8.0,12.0,47,0.00,,,0.00,meteohub,2013-05-19 05:12:00,
2013-05-18 23:17:00,43.7,26.2,29.67,North,6,5.0,10.0,50,0.00,,,0.00,meteohub,2013-05-19 05:17:00,
2013-05-18 23:22:00,43.2,26.2,29.67,NW,316,5.0,10.0,51,0.00,,,0.00,meteohub,2013-05-19 05:22:00,
2013-05-18 23:27:00,43.2,26.8,29.68,NW,326,5.0,10.0,52,0.00,,,0.00,meteohub,2013-05-19 05:27:00,
2013-05-18 23:32:00,42.8,26.4,29.67,NNW,335,7.0,10.0,52,0.00,,,0.00,meteohub,2013-05-19 05:32:00,
2013-05-18 23:37:00,42.4,26.1,29.67,NNW,331,5.0,8.0,52,0.00,,,0.00,meteohub,2013-05-19 05:37:00,
2013-05-18 23:42:00,42.4,25.5,29.67,NW,311,2.0,8.0,51,0.00,,,0.00,meteohub,2013-05-19 05:42:00,
2013-05-18 23:47:00,42.1,25.7,29.68,WNW,294,2.0,8.0,52,0.00,,,0.00,meteohub,2013-05-19 05:47:00,
2013-05-18 23:52:00,41.5,25.7,29.68,NNW,328,6.0,7.0,53,0.00,,,0.00,meteohub,2013-05-19 05:52:00,
2013-05-18 23:57:00,41.9,26.1,29.68,NNW,331,6.0,7.0,53,0.00,,,0.00,meteohub,2013-05-19 05:57:00,